Hlavní strana
METAR-TAF:

METAR-TAF

Letiště :

Indianapolis, Indiana, Spojené státy americké

zeměpisná šířka: 39-43-30N, zeměpisná délka: 086-16-55W, výška: 243 m

Aktuální stav počasí

Zpráva byla vytvořena před 27 minutami, v 13:54 UTC
Jihozápadní vítr 10 kt
Teplota 4°C
Vlhkost vzduchu 65%
Tlak 1017 hPa
Viditelnost: 16.1 km
Skoro jasno ve výšce 25000 ft

METAR: KIND 031354Z 23010KT 10SM FEW250 04/M02 A3002 RMK AO2 SLP170 T00391022

Čas: 09:21 (14:21 UTC)

Předpověď počasí

Zpráva byla vytvořena před 3 hodinami a 1 minutami, v 11:20 UTC
Předpověď platná od 03 v 12 UTC do 04 v 18 UTC
Jihozápadní vítr 6 kt
Viditelnost: 10 km
Jasno
Od 03 v 1800 UTC
Západojihozápadní vítr 10 kt
Viditelnost: 10 km
Jasno
Od 04 v 1200 UTC
Severní vítr 6 kt
Viditelnost: 10 km
Polojasno ve výšce 3500 ft

TAF: KIND 031120Z 0312/0418 22006KT P6SM SKC FM031800 25010KT P6SM SKC FM041200 01006KT P6SM SCT035

Stav a předpovědi počasí z více než 4 000 letišť (zprávy METAR a TAF).

Červené a žluté tečky na mapě představují dostupné meteorologické stanice.

Když kurzor umístíte na tečku, zobrazí se název stanice.

Pak kliknutím zobrazíte stav a předpověď počasí.

Chcete-li změnit mapu, kliknutím na zelené tlačítko se znaménkem +mapu přiblížíte, kliknutím na zelené tlačítko se znaménkem – mapu oddálíte a kliknutím na zelené šipky přejdete na sousední mapy.


METAR-TAF: